Thursday, August 16, 2018, 9:57 AM EDT
Back to Local

KPWM, Portland International Jetport

Location: Portland, ME, United States Lat: 43.65
Local Time: 9:57 AM EDT (13:57 GMT) Lon: -70.3
Time Zone: US/Eastern Elev: 75 ft

Show me the last for .
Show Decoded

2018-08-16 08:51 METAR KPWM 161251Z 00000KT 10SM FEW150 SCT250 25/20 A2996 RMK AO2 SLP146
                 T02500200 =
2018-08-16 07:51 METAR KPWM 161151Z 26003KT 10SM SCT070 BKN250 24/20 A2996 RMK AO2 SLP145
                 T02390200 10239 20206 51018 =
2018-08-16 06:51 METAR KPWM 161051Z 28004KT 10SM FEW120 SCT150 BKN200 22/20 A2994 RMK AO2 SLP138
                 T02170200 =
2018-08-16 05:51 METAR KPWM 160951Z 26003KT 10SM SCT150 OVC200 22/20 A2993 RMK AO2 SLP134
                 T02170200 =
2018-08-16 04:51 METAR KPWM 160851Z 30003KT 10SM OVC200 21/20 A2990 RMK AO2 SLP126 T02110200
                 53012 =
2018-08-16 03:51 METAR KPWM 160751Z AUTO 30004KT 10SM CLR 22/20 A2989 RMK AO2 SLP122 T02170200 =
2018-08-16 02:51 METAR KPWM 160651Z AUTO 26004KT 10SM CLR 21/20 A2987 RMK AO2 SLP115 T02110200 =
2018-08-16 01:51 METAR KPWM 160551Z AUTO 25004KT 10SM CLR 22/21 A2987 RMK AO2 RAB00E14 SLP114
                 P0000 60000 T02220211 10233 20217 51003 =
2018-08-16 00:51 METAR KPWM 160451Z AUTO 00000KT 10SM FEW120 22/21 A2987 RMK AO2 SLP114 T02220211
                 402830206 =
2018-08-15 23:51 METAR KPWM 160351Z 01004KT 10SM BKN060 BKN075 22/21 A2988 RMK AO2 SLP118 LAST
                 T02220211 =
2018-08-15 22:51 METAR KPWM 160251Z 00000KT 10SM CLR 22/21 A2986 RMK AO2 SLP111 60000 T02220211
                 50010 =
2018-08-15 21:51 METAR KPWM 160151Z 00000KT 10SM CLR 22/21 A2987 RMK AO2 SLP115 T02220211 =
2018-08-15 20:51 METAR KPWM 160051Z 16003KT 10SM CLR 22/21 A2986 RMK AO2 RAB12E22 SLP112 P0000
                 T02220206 =
2018-08-15 19:51 METAR KPWM 152351Z 19003KT 10SM CLR 23/21 A2983 RMK AO2 SLP101 T02280211 10283
                 20228 53005 =
2018-08-15 18:51 METAR KPWM 152251Z 19006KT 10SM FEW080 SCT200 24/21 A2981 RMK AO2 SLP094
                 T02390211 =
2018-08-15 17:51 METAR KPWM 152151Z 18007KT 9SM FEW035 SCT200 23/21 A2981 RMK AO2 SLP094
                 T02330211 =
2018-08-15 16:51 METAR KPWM 152051Z 19005G14KT 10SM SCT030 SCT180 24/21 A2982 RMK AO2 SLP096
                 T02390211 53002 =
2018-08-15 15:51 METAR KPWM 151951Z 17008KT 10SM FEW025 SCT180 26/22 A2981 RMK AO2 LTG DSNT N
                 SLP095 T02560217 =
2018-08-15 14:51 METAR KPWM 151851Z 18007G16KT 10SM SCT023 27/22 A2981 RMK AO2 SLP093 T02720222 =
2018-08-15 13:58 METAR KPWM 151758Z VRB05KT 10SM SCT023 28/22 A2981 RMK AO2 T02780222 =
2018-08-15 13:51 METAR KPWM 151751Z 11004KT 10SM BKN021 27/22 A2981 RMK AO2 SLP094 T02720222
                 10278 20217 58011 =
2018-08-15 13:00 METAR KPWM 151700Z VRB03KT 10SM SCT018 26/21 A2983 RMK AO2 T02610211 =
2018-08-15 12:51 METAR KPWM 151651Z 28005KT 10SM SCT016 BKN018 25/21 A2983 RMK AO2 SLP101
                 T02500211 =
2018-08-15 12:35 METAR KPWM 151635Z 27006KT 10SM BKN016 25/21 A2984 RMK AO2 T02500211 =
2018-08-15 11:51 METAR KPWM 151551Z 28005KT 10SM BKN011 OVC013 24/21 A2984 RMK AO2 SLP106
                 T02390211 =
2018-08-15 10:51 METAR KPWM 151451Z 28004KT 10SM OVC010 23/21 A2984 RMK AO2 SLP106 T02330211
                 53005 =

Support USWX by starting your Amazon purchase here.